sensor_id;sensor_type;location;lat;lon;timestamp;P1;durP1;ratioP1;P2;durP2;ratioP2
65583;SDS011;62116;43.582;1.470;2023-03-13T00:00:50;3.30;;;1.30;;
65583;SDS011;62116;43.582;1.470;2023-03-13T00:03:17;3.15;;;1.40;;
65583;SDS011;62116;43.582;1.470;2023-03-13T00:05:42;2.42;;;1.40;;
65583;SDS011;62116;43.582;1.470;2023-03-13T00:08:08;3.55;;;1.50;;
65583;SDS011;62116;43.582;1.470;2023-03-13T00:10:35;3.92;;;1.27;;
65583;SDS011;62116;43.582;1.470;2023-03-13T00:13:02;2.92;;;1.33;;
65583;SDS011;62116;43.582;1.470;2023-03-13T00:15:28;2.90;;;1.60;;
65583;SDS011;62116;43.582;1.470;2023-03-13T00:17:53;3.35;;;1.45;;
65583;SDS011;62116;43.582;1.470;2023-03-13T00:20:18;3.47;;;1.50;;
65583;SDS011;62116;43.582;1.470;2023-03-13T00:22:44;3.00;;;1.80;;
65583;SDS011;62116;43.582;1.470;2023-03-13T00:25:09;3.53;;;1.75;;
65583;SDS011;62116;43.582;1.470;2023-03-13T00:27:34;3.45;;;2.15;;
65583;SDS011;62116;43.582;1.470;2023-03-13T00:30:00;5.30;;;2.53;;
65583;SDS011;62116;43.582;1.470;2023-03-13T00:32:25;3.20;;;2.00;;
65583;SDS011;62116;43.582;1.470;2023-03-13T00:34:50;5.97;;;2.10;;
65583;SDS011;62116;43.582;1.470;2023-03-13T00:37:16;3.03;;;1.65;;
65583;SDS011;62116;43.582;1.470;2023-03-13T00:39:41;4.30;;;1.83;;
65583;SDS011;62116;43.582;1.470;2023-03-13T00:42:07;6.13;;;2.10;;
65583;SDS011;62116;43.582;1.470;2023-03-13T00:44:32;4.40;;;2.28;;
65583;SDS011;62116;43.582;1.470;2023-03-13T00:46:57;6.78;;;2.85;;
65583;SDS011;62116;43.582;1.470;2023-03-13T00:49:23;5.72;;;3.05;;
65583;SDS011;62116;43.582;1.470;2023-03-13T00:51:48;6.07;;;3.28;;
65583;SDS011;62116;43.582;1.470;2023-03-13T00:54:14;7.32;;;3.45;;
65583;SDS011;62116;43.582;1.470;2023-03-13T00:56:39;6.60;;;3.30;;
65583;SDS011;62116;43.582;1.470;2023-03-13T00:59:04;6.70;;;3.58;;
65583;SDS011;62116;43.582;1.470;2023-03-13T01:01:31;5.82;;;3.38;;
65583;SDS011;62116;43.582;1.470;2023-03-13T01:03:59;6.15;;;3.33;;
65583;SDS011;62116;43.582;1.470;2023-03-13T01:06:30;6.30;;;3.30;;
65583;SDS011;62116;43.582;1.470;2023-03-13T01:08:57;5.53;;;3.28;;
65583;SDS011;62116;43.582;1.470;2023-03-13T01:11:24;6.60;;;3.17;;
65583;SDS011;62116;43.582;1.470;2023-03-13T01:13:54;6.57;;;3.33;;
65583;SDS011;62116;43.582;1.470;2023-03-13T01:16:25;6.60;;;3.78;;
65583;SDS011;62116;43.582;1.470;2023-03-13T01:18:53;5.88;;;3.40;;
65583;SDS011;62116;43.582;1.470;2023-03-13T01:21:21;5.55;;;2.92;;
65583;SDS011;62116;43.582;1.470;2023-03-13T01:23:48;6.75;;;3.00;;
65583;SDS011;62116;43.582;1.470;2023-03-13T01:26:14;6.60;;;2.70;;
65583;SDS011;62116;43.582;1.470;2023-03-13T01:28:40;6.43;;;2.83;;
65583;SDS011;62116;43.582;1.470;2023-03-13T01:31:10;4.72;;;2.75;;
65583;SDS011;62116;43.582;1.470;2023-03-13T01:33:35;5.65;;;3.03;;
65583;SDS011;62116;43.582;1.470;2023-03-13T01:36:01;4.85;;;2.95;;
65583;SDS011;62116;43.582;1.470;2023-03-13T01:38:27;4.03;;;3.00;;
65583;SDS011;62116;43.582;1.470;2023-03-13T01:40:53;5.45;;;2.80;;
65583;SDS011;62116;43.582;1.470;2023-03-13T01:43:25;4.97;;;2.80;;
65583;SDS011;62116;43.582;1.470;2023-03-13T01:45:53;5.10;;;3.03;;
65583;SDS011;62116;43.582;1.470;2023-03-13T01:48:28;4.20;;;3.10;;
65583;SDS011;62116;43.582;1.470;2023-03-13T01:51:02;4.72;;;2.90;;
65583;SDS011;62116;43.582;1.470;2023-03-13T01:53:32;6.15;;;3.13;;
65583;SDS011;62116;43.582;1.470;2023-03-13T01:55:59;6.35;;;3.20;;
65583;SDS011;62116;43.582;1.470;2023-03-13T01:58:26;4.13;;;3.00;;
65583;SDS011;62116;43.582;1.470;2023-03-13T02:00:53;4.85;;;2.97;;
65583;SDS011;62116;43.582;1.470;2023-03-13T02:03:18;4.95;;;2.80;;
65583;SDS011;62116;43.582;1.470;2023-03-13T02:05:45;5.10;;;3.00;;
65583;SDS011;62116;43.582;1.470;2023-03-13T02:08:20;4.70;;;3.20;;
65583;SDS011;62116;43.582;1.470;2023-03-13T02:10:54;4.30;;;3.20;;
65583;SDS011;62116;43.582;1.470;2023-03-13T02:13:25;4.15;;;2.85;;
65583;SDS011;62116;43.582;1.470;2023-03-13T02:15:51;5.95;;;3.20;;
65583;SDS011;62116;43.582;1.470;2023-03-13T02:18:17;5.38;;;3.50;;
65583;SDS011;62116;43.582;1.470;2023-03-13T02:20:42;4.47;;;3.00;;
65583;SDS011;62116;43.582;1.470;2023-03-13T02:26:08;7.97;;;3.90;;
65583;SDS011;62116;43.582;1.470;2023-03-13T02:28:34;6.85;;;3.75;;
65583;SDS011;62116;43.582;1.470;2023-03-13T02:31:03;5.72;;;3.50;;
65583;SDS011;62116;43.582;1.470;2023-03-13T02:33:30;7.03;;;3.30;;
65583;SDS011;62116;43.582;1.470;2023-03-13T02:35:59;5.95;;;3.15;;
65583;SDS011;62116;43.582;1.470;2023-03-13T02:38:27;4.97;;;2.80;;
65583;SDS011;62116;43.582;1.470;2023-03-13T02:40:58;3.80;;;2.72;;
65583;SDS011;62116;43.582;1.470;2023-03-13T02:43:57;4.15;;;2.60;;
65583;SDS011;62116;43.582;1.470;2023-03-13T02:46:17;6.53;;;3.08;;
65583;SDS011;62116;43.582;1.470;2023-03-13T02:48:48;5.28;;;2.63;;
65583;SDS011;62116;43.582;1.470;2023-03-13T02:51:17;5.22;;;2.83;;
65583;SDS011;62116;43.582;1.470;2023-03-13T02:53:57;4.45;;;2.72;;
65583;SDS011;62116;43.582;1.470;2023-03-13T02:56:26;7.13;;;2.90;;
65583;SDS011;62116;43.582;1.470;2023-03-13T02:58:53;4.65;;;2.40;;
65583;SDS011;62116;43.582;1.470;2023-03-13T03:01:18;8.82;;;2.67;;
65583;SDS011;62116;43.582;1.470;2023-03-13T03:03:43;4.10;;;2.63;;
65583;SDS011;62116;43.582;1.470;2023-03-13T03:06:09;4.43;;;2.60;;
65583;SDS011;62116;43.582;1.470;2023-03-13T03:08:34;4.15;;;2.67;;
65583;SDS011;62116;43.582;1.470;2023-03-13T03:11:00;4.78;;;2.30;;
65583;SDS011;62116;43.582;1.470;2023-03-13T03:13:26;3.33;;;2.40;;
65583;SDS011;62116;43.582;1.470;2023-03-13T03:15:51;3.47;;;2.20;;
65583;SDS011;62116;43.582;1.470;2023-03-13T03:18:17;4.43;;;1.90;;
65583;SDS011;62116;43.582;1.470;2023-03-13T03:20:42;3.80;;;2.28;;
65583;SDS011;62116;43.582;1.470;2023-03-13T03:23:07;2.72;;;1.92;;
65583;SDS011;62116;43.582;1.470;2023-03-13T03:25:33;4.47;;;1.90;;
65583;SDS011;62116;43.582;1.470;2023-03-13T03:27:58;2.78;;;1.65;;
65583;SDS011;62116;43.582;1.470;2023-03-13T03:30:24;3.13;;;1.70;;
65583;SDS011;62116;43.582;1.470;2023-03-13T03:32:49;3.30;;;1.80;;
65583;SDS011;62116;43.582;1.470;2023-03-13T03:35:15;4.57;;;1.85;;
65583;SDS011;62116;43.582;1.470;2023-03-13T03:37:40;4.40;;;1.90;;
65583;SDS011;62116;43.582;1.470;2023-03-13T03:40:06;2.55;;;1.80;;
65583;SDS011;62116;43.582;1.470;2023-03-13T03:42:32;3.85;;;1.95;;
65583;SDS011;62116;43.582;1.470;2023-03-13T03:44:58;4.78;;;2.13;;
65583;SDS011;62116;43.582;1.470;2023-03-13T03:47:23;3.45;;;2.10;;
65583;SDS011;62116;43.582;1.470;2023-03-13T03:49:49;4.47;;;2.50;;
65583;SDS011;62116;43.582;1.470;2023-03-13T03:52:14;4.55;;;2.70;;
65583;SDS011;62116;43.582;1.470;2023-03-13T03:54:39;4.10;;;2.50;;
65583;SDS011;62116;43.582;1.470;2023-03-13T03:57:05;3.65;;;2.15;;
65583;SDS011;62116;43.582;1.470;2023-03-13T03:59:30;3.17;;;2.05;;
65583;SDS011;62116;43.582;1.470;2023-03-13T04:01:56;2.90;;;1.92;;
65583;SDS011;62116;43.582;1.470;2023-03-13T04:04:21;3.70;;;2.25;;
65583;SDS011;62116;43.582;1.470;2023-03-13T04:06:46;3.80;;;2.15;;
65583;SDS011;62116;43.582;1.470;2023-03-13T04:09:12;4.80;;;2.00;;
65583;SDS011;62116;43.582;1.470;2023-03-13T04:11:37;3.20;;;1.83;;
65583;SDS011;62116;43.582;1.470;2023-03-13T04:14:03;3.80;;;1.90;;
65583;SDS011;62116;43.582;1.470;2023-03-13T04:16:28;3.67;;;1.92;;
65583;SDS011;62116;43.582;1.470;2023-03-13T04:18:53;4.45;;;2.10;;
65583;SDS011;62116;43.582;1.470;2023-03-13T04:21:19;4.15;;;2.40;;
65583;SDS011;62116;43.582;1.470;2023-03-13T04:23:44;5.35;;;2.40;;
65583;SDS011;62116;43.582;1.470;2023-03-13T04:26:09;4.40;;;2.53;;
65583;SDS011;62116;43.582;1.470;2023-03-13T04:28:35;3.95;;;1.95;;
65583;SDS011;62116;43.582;1.470;2023-03-13T04:31:00;3.00;;;2.15;;
65583;SDS011;62116;43.582;1.470;2023-03-13T04:33:26;4.88;;;1.95;;
65583;SDS011;62116;43.582;1.470;2023-03-13T04:35:51;3.03;;;2.00;;
65583;SDS011;62116;43.582;1.470;2023-03-13T04:38:17;4.72;;;2.03;;
65583;SDS011;62116;43.582;1.470;2023-03-13T04:40:42;4.47;;;2.10;;
65583;SDS011;62116;43.582;1.470;2023-03-13T04:43:08;4.35;;;2.20;;
65583;SDS011;62116;43.582;1.470;2023-03-13T04:45:33;3.75;;;2.08;;
65583;SDS011;62116;43.582;1.470;2023-03-13T04:47:59;3.75;;;1.98;;
65583;SDS011;62116;43.582;1.470;2023-03-13T04:50:24;4.80;;;2.20;;
65583;SDS011;62116;43.582;1.470;2023-03-13T04:52:49;6.32;;;2.00;;
65583;SDS011;62116;43.582;1.470;2023-03-13T04:55:15;2.88;;;1.80;;
65583;SDS011;62116;43.582;1.470;2023-03-13T04:57:41;3.47;;;2.20;;
65583;SDS011;62116;43.582;1.470;2023-03-13T05:00:09;4.43;;;1.95;;
65583;SDS011;62116;43.582;1.470;2023-03-13T05:02:35;3.58;;;1.73;;
65583;SDS011;62116;43.582;1.470;2023-03-13T05:05:01;6.07;;;2.05;;
65583;SDS011;62116;43.582;1.470;2023-03-13T05:07:26;4.32;;;1.98;;
65583;SDS011;62116;43.582;1.470;2023-03-13T05:09:51;3.25;;;2.08;;
65583;SDS011;62116;43.582;1.470;2023-03-13T05:12:17;2.88;;;1.95;;
65583;SDS011;62116;43.582;1.470;2023-03-13T05:14:42;2.85;;;1.88;;
65583;SDS011;62116;43.582;1.470;2023-03-13T05:17:07;2.53;;;1.92;;
65583;SDS011;62116;43.582;1.470;2023-03-13T05:19:34;3.10;;;1.88;;
65583;SDS011;62116;43.582;1.470;2023-03-13T05:22:00;3.10;;;1.90;;
65583;SDS011;62116;43.582;1.470;2023-03-13T05:24:26;3.38;;;1.88;;
65583;SDS011;62116;43.582;1.470;2023-03-13T05:26:51;4.25;;;1.83;;
65583;SDS011;62116;43.582;1.470;2023-03-13T05:29:17;3.97;;;1.95;;
65583;SDS011;62116;43.582;1.470;2023-03-13T05:31:42;3.40;;;1.88;;
65583;SDS011;62116;43.582;1.470;2023-03-13T05:34:08;3.55;;;1.80;;
65583;SDS011;62116;43.582;1.470;2023-03-13T05:36:33;2.83;;;1.83;;
65583;SDS011;62116;43.582;1.470;2023-03-13T05:39:00;2.38;;;1.70;;
65583;SDS011;62116;43.582;1.470;2023-03-13T05:41:25;2.78;;;1.65;;
65583;SDS011;62116;43.582;1.470;2023-03-13T05:43:50;3.90;;;1.67;;
65583;SDS011;62116;43.582;1.470;2023-03-13T05:46:16;3.08;;;1.80;;
65583;SDS011;62116;43.582;1.470;2023-03-13T05:48:41;7.30;;;2.10;;
65583;SDS011;62116;43.582;1.470;2023-03-13T05:51:09;3.60;;;1.90;;
65583;SDS011;62116;43.582;1.470;2023-03-13T05:53:34;5.15;;;2.00;;
65583;SDS011;62116;43.582;1.470;2023-03-13T05:56:00;3.28;;;1.67;;
65583;SDS011;62116;43.582;1.470;2023-03-13T05:58:26;2.47;;;1.77;;
65583;SDS011;62116;43.582;1.470;2023-03-13T06:00:51;3.35;;;1.80;;
65583;SDS011;62116;43.582;1.470;2023-03-13T06:03:17;4.32;;;1.70;;
65583;SDS011;62116;43.582;1.470;2023-03-13T06:05:42;2.72;;;1.70;;
65583;SDS011;62116;43.582;1.470;2023-03-13T06:08:08;3.22;;;1.90;;
65583;SDS011;62116;43.582;1.470;2023-03-13T06:10:33;3.72;;;1.90;;
65583;SDS011;62116;43.582;1.470;2023-03-13T06:12:59;3.15;;;1.77;;
65583;SDS011;62116;43.582;1.470;2023-03-13T06:15:24;4.80;;;2.00;;
65583;SDS011;62116;43.582;1.470;2023-03-13T06:17:49;3.63;;;1.60;;
65583;SDS011;62116;43.582;1.470;2023-03-13T06:20:15;2.75;;;1.80;;
65583;SDS011;62116;43.582;1.470;2023-03-13T06:22:40;4.80;;;2.10;;
65583;SDS011;62116;43.582;1.470;2023-03-13T06:25:06;3.33;;;1.85;;
65583;SDS011;62116;43.582;1.470;2023-03-13T06:27:32;2.42;;;1.50;;
65583;SDS011;62116;43.582;1.470;2023-03-13T06:29:57;2.67;;;1.83;;
65583;SDS011;62116;43.582;1.470;2023-03-13T06:32:23;4.50;;;1.88;;
65583;SDS011;62116;43.582;1.470;2023-03-13T06:34:48;3.67;;;1.60;;
65583;SDS011;62116;43.582;1.470;2023-03-13T06:37:16;4.20;;;1.88;;
65583;SDS011;62116;43.582;1.470;2023-03-13T06:39:42;4.28;;;1.80;;
65583;SDS011;62116;43.582;1.470;2023-03-13T06:42:07;3.53;;;1.88;;
65583;SDS011;62116;43.582;1.470;2023-03-13T06:44:32;4.13;;;1.73;;
65583;SDS011;62116;43.582;1.470;2023-03-13T06:46:58;4.65;;;1.90;;
65583;SDS011;62116;43.582;1.470;2023-03-13T06:49:23;4.32;;;2.00;;
65583;SDS011;62116;43.582;1.470;2023-03-13T06:51:49;5.82;;;1.85;;
65583;SDS011;62116;43.582;1.470;2023-03-13T06:54:14;2.85;;;1.90;;
65583;SDS011;62116;43.582;1.470;2023-03-13T06:56:39;3.13;;;2.08;;
65583;SDS011;62116;43.582;1.470;2023-03-13T06:59:05;4.50;;;2.10;;
65583;SDS011;62116;43.582;1.470;2023-03-13T07:01:30;5.50;;;2.00;;
65583;SDS011;62116;43.582;1.470;2023-03-13T07:03:56;3.53;;;2.00;;
65583;SDS011;62116;43.582;1.470;2023-03-13T07:06:21;5.35;;;2.10;;
65583;SDS011;62116;43.582;1.470;2023-03-13T07:08:46;3.83;;;2.38;;
65583;SDS011;62116;43.582;1.470;2023-03-13T07:11:12;5.32;;;2.17;;
65583;SDS011;62116;43.582;1.470;2023-03-13T07:13:39;4.40;;;2.15;;
65583;SDS011;62116;43.582;1.470;2023-03-13T07:16:05;4.75;;;2.40;;
65583;SDS011;62116;43.582;1.470;2023-03-13T07:18:32;4.47;;;2.28;;
65583;SDS011;62116;43.582;1.470;2023-03-13T07:20:59;4.30;;;2.20;;
65583;SDS011;62116;43.582;1.470;2023-03-13T07:23:28;5.93;;;2.05;;
65583;SDS011;62116;43.582;1.470;2023-03-13T07:25:58;6.10;;;1.95;;
65583;SDS011;62116;43.582;1.470;2023-03-13T07:28:29;5.07;;;1.98;;
65583;SDS011;62116;43.582;1.470;2023-03-13T07:31:02;6.20;;;2.28;;
65583;SDS011;62116;43.582;1.470;2023-03-13T07:33:31;5.63;;;2.13;;
65583;SDS011;62116;43.582;1.470;2023-03-13T07:35:57;5.00;;;2.00;;
65583;SDS011;62116;43.582;1.470;2023-03-13T07:38:22;4.85;;;1.88;;
65583;SDS011;62116;43.582;1.470;2023-03-13T07:40:51;4.35;;;1.88;;
65583;SDS011;62116;43.582;1.470;2023-03-13T07:43:18;6.22;;;1.80;;
65583;SDS011;62116;43.582;1.470;2023-03-13T07:48:30;4.07;;;1.80;;
65583;SDS011;62116;43.582;1.470;2023-03-13T07:51:00;4.20;;;1.83;;
65583;SDS011;62116;43.582;1.470;2023-03-13T07:53:26;4.38;;;1.60;;
65583;SDS011;62116;43.582;1.470;2023-03-13T07:58:19;3.20;;;1.70;;
65583;SDS011;62116;43.582;1.470;2023-03-13T08:00:45;4.05;;;1.70;;
65583;SDS011;62116;43.582;1.470;2023-03-13T08:03:10;3.55;;;1.73;;
65583;SDS011;62116;43.582;1.470;2023-03-13T08:05:36;5.47;;;1.90;;
65583;SDS011;62116;43.582;1.470;2023-03-13T08:08:01;6.25;;;1.95;;
65583;SDS011;62116;43.582;1.470;2023-03-13T08:10:27;5.78;;;2.30;;
65583;SDS011;62116;43.582;1.470;2023-03-13T08:12:52;5.65;;;1.90;;
65583;SDS011;62116;43.582;1.470;2023-03-13T08:15:17;6.72;;;2.40;;
65583;SDS011;62116;43.582;1.470;2023-03-13T08:17:48;8.97;;;2.27;;
65583;SDS011;62116;43.582;1.470;2023-03-13T08:20:13;6.28;;;1.88;;
65583;SDS011;62116;43.582;1.470;2023-03-13T08:22:39;5.18;;;1.60;;
65583;SDS011;62116;43.582;1.470;2023-03-13T08:25:04;4.45;;;1.98;;
65583;SDS011;62116;43.582;1.470;2023-03-13T08:27:30;7.25;;;2.22;;
65583;SDS011;62116;43.582;1.470;2023-03-13T08:29:55;4.28;;;1.80;;
65583;SDS011;62116;43.582;1.470;2023-03-13T08:32:20;5.50;;;1.58;;
65583;SDS011;62116;43.582;1.470;2023-03-13T08:34:46;4.82;;;1.20;;
65583;SDS011;62116;43.582;1.470;2023-03-13T08:37:14;4.53;;;1.55;;
65583;SDS011;62116;43.582;1.470;2023-03-13T08:39:39;3.25;;;1.30;;
65583;SDS011;62116;43.582;1.470;2023-03-13T08:42:06;4.85;;;1.25;;
65583;SDS011;62116;43.582;1.470;2023-03-13T08:44:35;6.32;;;1.27;;
65583;SDS011;62116;43.582;1.470;2023-03-13T08:47:00;3.53;;;1.10;;
65583;SDS011;62116;43.582;1.470;2023-03-13T08:49:26;2.75;;;1.00;;
65583;SDS011;62116;43.582;1.470;2023-03-13T08:51:51;3.20;;;1.10;;
65583;SDS011;62116;43.582;1.470;2023-03-13T08:54:16;4.78;;;1.60;;
65583;SDS011;62116;43.582;1.470;2023-03-13T08:56:42;3.70;;;1.50;;
65583;SDS011;62116;43.582;1.470;2023-03-13T08:59:08;2.75;;;1.20;;
65583;SDS011;62116;43.582;1.470;2023-03-13T09:01:34;3.35;;;1.10;;
65583;SDS011;62116;43.582;1.470;2023-03-13T09:04:01;7.15;;;1.27;;
65583;SDS011;62116;43.582;1.470;2023-03-13T09:06:27;4.05;;;1.33;;
65583;SDS011;62116;43.582;1.470;2023-03-13T09:08:54;4.72;;;1.15;;
65583;SDS011;62116;43.582;1.470;2023-03-13T09:11:22;5.53;;;1.40;;
65583;SDS011;62116;43.582;1.470;2023-03-13T09:13:48;4.32;;;1.20;;
65583;SDS011;62116;43.582;1.470;2023-03-13T09:16:15;4.20;;;1.30;;
65583;SDS011;62116;43.582;1.470;2023-03-13T09:18:42;3.40;;;1.23;;
65583;SDS011;62116;43.582;1.470;2023-03-13T09:21:12;5.53;;;1.20;;
65583;SDS011;62116;43.582;1.470;2023-03-13T09:23:39;4.25;;;1.13;;
65583;SDS011;62116;43.582;1.470;2023-03-13T09:26:05;6.20;;;1.42;;
65583;SDS011;62116;43.582;1.470;2023-03-13T09:28:33;3.00;;;1.20;;
65583;SDS011;62116;43.582;1.470;2023-03-13T09:31:15;4.97;;;1.33;;
65583;SDS011;62116;43.582;1.470;2023-03-13T09:33:43;4.70;;;1.33;;
65583;SDS011;62116;43.582;1.470;2023-03-13T09:36:09;5.10;;;1.20;;
65583;SDS011;62116;43.582;1.470;2023-03-13T09:38:36;3.25;;;1.23;;
65583;SDS011;62116;43.582;1.470;2023-03-13T09:41:04;4.35;;;1.50;;
65583;SDS011;62116;43.582;1.470;2023-03-13T09:49:03;3.25;;;1.00;;
65583;SDS011;62116;43.582;1.470;2023-03-13T09:51:35;5.93;;;1.55;;
65583;SDS011;62116;43.582;1.470;2023-03-13T09:54:08;4.57;;;1.50;;
65583;SDS011;62116;43.582;1.470;2023-03-13T10:02:24;6.03;;;1.75;;
65583;SDS011;62116;43.582;1.470;2023-03-13T10:04:58;6.93;;;1.40;;
65583;SDS011;62116;43.582;1.470;2023-03-13T10:07:29;5.63;;;1.60;;
65583;SDS011;62116;43.582;1.470;2023-03-13T10:09:54;6.72;;;1.67;;
65583;SDS011;62116;43.582;1.470;2023-03-13T10:12:23;7.53;;;2.15;;
65583;SDS011;62116;43.582;1.470;2023-03-13T10:14:56;4.97;;;1.67;;
65583;SDS011;62116;43.582;1.470;2023-03-13T10:17:33;4.07;;;1.75;;
65583;SDS011;62116;43.582;1.470;2023-03-13T10:20:00;8.43;;;1.70;;
65583;SDS011;62116;43.582;1.470;2023-03-13T10:22:56;7.95;;;1.90;;
65583;SDS011;62116;43.582;1.470;2023-03-13T10:25:34;9.07;;;2.28;;
65583;SDS011;62116;43.582;1.470;2023-03-13T10:28:02;5.07;;;1.90;;
65583;SDS011;62116;43.582;1.470;2023-03-13T10:30:32;4.03;;;1.90;;
65583;SDS011;62116;43.582;1.470;2023-03-13T10:35:36;9.43;;;1.90;;
65583;SDS011;62116;43.582;1.470;2023-03-13T10:40:41;6.63;;;2.00;;
65583;SDS011;62116;43.582;1.470;2023-03-13T10:43:16;5.72;;;1.90;;
65583;SDS011;62116;43.582;1.470;2023-03-13T10:45:43;9.07;;;1.95;;
65583;SDS011;62116;43.582;1.470;2023-03-13T10:48:10;7.05;;;2.03;;
65583;SDS011;62116;43.582;1.470;2023-03-13T10:50:40;8.13;;;1.83;;
65583;SDS011;62116;43.582;1.470;2023-03-13T10:53:24;6.32;;;2.08;;
65583;SDS011;62116;43.582;1.470;2023-03-13T10:58:34;6.45;;;2.10;;
65583;SDS011;62116;43.582;1.470;2023-03-13T11:03:46;8.63;;;2.30;;
65583;SDS011;62116;43.582;1.470;2023-03-13T11:06:24;10.80;;;2.20;;
65583;SDS011;62116;43.582;1.470;2023-03-13T11:09:18;8.90;;;2.10;;
65583;SDS011;62116;43.582;1.470;2023-03-13T11:11:44;8.82;;;2.72;;
65583;SDS011;62116;43.582;1.470;2023-03-13T11:14:14;8.52;;;2.88;;
65583;SDS011;62116;43.582;1.470;2023-03-13T11:16:48;7.47;;;2.83;;
65583;SDS011;62116;43.582;1.470;2023-03-13T11:24:57;6.40;;;2.30;;
65583;SDS011;62116;43.582;1.470;2023-03-13T11:27:35;7.40;;;2.00;;
65583;SDS011;62116;43.582;1.470;2023-03-13T11:33:28;7.35;;;1.80;;
65583;SDS011;62116;43.582;1.470;2023-03-13T11:36:07;9.15;;;2.00;;
65583;SDS011;62116;43.582;1.470;2023-03-13T11:38:54;5.25;;;1.58;;
65583;SDS011;62116;43.582;1.470;2023-03-13T11:52:39;14.32;;;1.70;;
65583;SDS011;62116;43.582;1.470;2023-03-13T11:55:28;6.13;;;1.55;;
65583;SDS011;62116;43.582;1.470;2023-03-13T12:00:58;7.65;;;2.10;;
65583;SDS011;62116;43.582;1.470;2023-03-13T12:06:30;5.43;;;1.60;;
65583;SDS011;62116;43.582;1.470;2023-03-13T12:12:18;6.28;;;1.90;;
65583;SDS011;62116;43.582;1.470;2023-03-13T12:14:56;7.38;;;2.13;;
65583;SDS011;62116;43.582;1.470;2023-03-13T12:26:05;7.90;;;2.10;;
65583;SDS011;62116;43.582;1.470;2023-03-13T12:28:37;6.88;;;1.85;;
65583;SDS011;62116;43.582;1.470;2023-03-13T12:34:13;7.05;;;2.42;;
65583;SDS011;62116;43.582;1.470;2023-03-13T12:39:48;6.28;;;2.10;;
65583;SDS011;62116;43.582;1.470;2023-03-13T12:44:44;4.82;;;1.80;;
65583;SDS011;62116;43.582;1.470;2023-03-13T12:52:24;5.75;;;1.77;;
65583;SDS011;62116;43.582;1.470;2023-03-13T13:01:04;6.28;;;2.20;;
65583;SDS011;62116;43.582;1.470;2023-03-13T13:03:48;6.22;;;2.20;;
65583;SDS011;62116;43.582;1.470;2023-03-13T13:06:17;7.78;;;2.35;;
65583;SDS011;62116;43.582;1.470;2023-03-13T13:08:48;6.68;;;2.13;;
65583;SDS011;62116;43.582;1.470;2023-03-13T13:17:02;5.90;;;2.20;;
65583;SDS011;62116;43.582;1.470;2023-03-13T13:19:44;11.15;;;2.45;;
65583;SDS011;62116;43.582;1.470;2023-03-13T13:25:00;9.73;;;2.45;;
65583;SDS011;62116;43.582;1.470;2023-03-13T13:32:41;6.13;;;3.08;;
65583;SDS011;62116;43.582;1.470;2023-03-13T13:37:46;7.15;;;2.67;;
65583;SDS011;62116;43.582;1.470;2023-03-13T13:47:50;8.52;;;2.55;;
65583;SDS011;62116;43.582;1.470;2023-03-13T13:50:35;6.28;;;2.20;;
65583;SDS011;62116;43.582;1.470;2023-03-13T13:56:26;7.80;;;2.80;;
65583;SDS011;62116;43.582;1.470;2023-03-13T13:58:56;6.45;;;2.67;;
65583;SDS011;62116;43.582;1.470;2023-03-13T14:01:24;10.75;;;3.00;;
65583;SDS011;62116;43.582;1.470;2023-03-13T14:03:50;7.68;;;2.80;;
65583;SDS011;62116;43.582;1.470;2023-03-13T14:06:27;7.10;;;3.22;;
65583;SDS011;62116;43.582;1.470;2023-03-13T14:08:56;6.93;;;3.20;;
65583;SDS011;62116;43.582;1.470;2023-03-13T14:11:36;7.67;;;3.20;;
65583;SDS011;62116;43.582;1.470;2023-03-13T14:14:09;8.43;;;3.13;;
65583;SDS011;62116;43.582;1.470;2023-03-13T14:16:42;8.45;;;3.22;;
65583;SDS011;62116;43.582;1.470;2023-03-13T14:19:29;8.68;;;3.22;;
65583;SDS011;62116;43.582;1.470;2023-03-13T14:22:03;8.98;;;3.72;;
65583;SDS011;62116;43.582;1.470;2023-03-13T14:24:30;7.25;;;3.30;;
65583;SDS011;62116;43.582;1.470;2023-03-13T14:26:56;9.45;;;3.90;;
65583;SDS011;62116;43.582;1.470;2023-03-13T14:29:21;9.45;;;3.90;;
65583;SDS011;62116;43.582;1.470;2023-03-13T14:31:51;9.93;;;3.67;;
65583;SDS011;62116;43.582;1.470;2023-03-13T14:34:22;10.52;;;4.15;;
65583;SDS011;62116;43.582;1.470;2023-03-13T14:36:51;8.35;;;3.60;;
65583;SDS011;62116;43.582;1.470;2023-03-13T14:39:19;15.10;;;4.00;;
65583;SDS011;62116;43.582;1.470;2023-03-13T14:42:08;8.65;;;3.80;;
65583;SDS011;62116;43.582;1.470;2023-03-13T14:44:36;7.90;;;3.90;;
65583;SDS011;62116;43.582;1.470;2023-03-13T14:47:05;7.72;;;3.70;;
65583;SDS011;62116;43.582;1.470;2023-03-13T14:49:33;10.27;;;3.60;;
65583;SDS011;62116;43.582;1.470;2023-03-13T14:59:41;7.03;;;3.40;;
65583;SDS011;62116;43.582;1.470;2023-03-13T15:07:20;8.75;;;4.10;;
65583;SDS011;62116;43.582;1.470;2023-03-13T15:09:47;11.52;;;4.05;;
65583;SDS011;62116;43.582;1.470;2023-03-13T15:12:15;8.73;;;3.83;;
65583;SDS011;62116;43.582;1.470;2023-03-13T15:14:43;11.65;;;3.72;;
65583;SDS011;62116;43.582;1.470;2023-03-13T15:17:15;7.97;;;3.70;;
65583;SDS011;62116;43.582;1.470;2023-03-13T15:19:40;9.00;;;3.67;;
65583;SDS011;62116;43.582;1.470;2023-03-13T15:22:11;8.70;;;4.82;;
65583;SDS011;62116;43.582;1.470;2023-03-13T15:24:39;11.52;;;5.72;;
65583;SDS011;62116;43.582;1.470;2023-03-13T15:27:17;9.95;;;4.50;;
65583;SDS011;62116;43.582;1.470;2023-03-13T15:29:45;9.35;;;4.68;;
65583;SDS011;62116;43.582;1.470;2023-03-13T15:32:13;7.82;;;3.70;;
65583;SDS011;62116;43.582;1.470;2023-03-13T15:34:47;11.65;;;4.38;;
65583;SDS011;62116;43.582;1.470;2023-03-13T15:37:12;13.25;;;3.85;;
65583;SDS011;62116;43.582;1.470;2023-03-13T15:39:38;11.30;;;4.25;;
65583;SDS011;62116;43.582;1.470;2023-03-13T15:42:03;10.20;;;4.30;;
65583;SDS011;62116;43.582;1.470;2023-03-13T15:44:29;10.95;;;4.47;;
65583;SDS011;62116;43.582;1.470;2023-03-13T15:46:54;8.10;;;3.67;;
65583;SDS011;62116;43.582;1.470;2023-03-13T15:49:20;7.97;;;3.72;;
65583;SDS011;62116;43.582;1.470;2023-03-13T15:51:45;10.63;;;3.97;;
65583;SDS011;62116;43.582;1.470;2023-03-13T15:54:10;10.18;;;3.92;;
65583;SDS011;62116;43.582;1.470;2023-03-13T15:56:36;11.25;;;4.15;;
65583;SDS011;62116;43.582;1.470;2023-03-13T15:59:12;12.57;;;3.90;;
65583;SDS011;62116;43.582;1.470;2023-03-13T16:01:39;12.88;;;3.83;;
65583;SDS011;62116;43.582;1.470;2023-03-13T16:04:05;7.38;;;3.80;;
65583;SDS011;62116;43.582;1.470;2023-03-13T16:06:31;9.60;;;3.40;;
65583;SDS011;62116;43.582;1.470;2023-03-13T16:08:57;10.77;;;3.88;;
65583;SDS011;62116;43.582;1.470;2023-03-13T16:11:24;9.13;;;3.72;;
65583;SDS011;62116;43.582;1.470;2023-03-13T16:13:49;13.82;;;3.65;;
65583;SDS011;62116;43.582;1.470;2023-03-13T16:18:54;9.40;;;3.55;;
65583;SDS011;62116;43.582;1.470;2023-03-13T16:21:22;10.52;;;3.97;;
65583;SDS011;62116;43.582;1.470;2023-03-13T16:23:50;8.50;;;3.67;;
65583;SDS011;62116;43.582;1.470;2023-03-13T16:26:20;8.73;;;3.50;;
65583;SDS011;62116;43.582;1.470;2023-03-13T16:28:50;7.88;;;3.83;;
65583;SDS011;62116;43.582;1.470;2023-03-13T16:31:18;8.18;;;3.50;;
65583;SDS011;62116;43.582;1.470;2023-03-13T16:33:46;9.87;;;3.50;;
65583;SDS011;62116;43.582;1.470;2023-03-13T16:36:14;9.02;;;3.40;;
65583;SDS011;62116;43.582;1.470;2023-03-13T16:38:41;13.32;;;3.90;;
65583;SDS011;62116;43.582;1.470;2023-03-13T16:41:08;9.60;;;3.60;;
65583;SDS011;62116;43.582;1.470;2023-03-13T16:43:36;9.52;;;3.58;;
65583;SDS011;62116;43.582;1.470;2023-03-13T16:46:02;8.18;;;3.80;;
65583;SDS011;62116;43.582;1.470;2023-03-13T16:48:30;9.05;;;3.60;;
65583;SDS011;62116;43.582;1.470;2023-03-13T16:50:55;7.57;;;3.95;;
65583;SDS011;62116;43.582;1.470;2023-03-13T16:53:21;10.00;;;4.10;;
65583;SDS011;62116;43.582;1.470;2023-03-13T16:55:46;9.05;;;4.07;;
65583;SDS011;62116;43.582;1.470;2023-03-13T16:58:11;10.07;;;3.85;;
65583;SDS011;62116;43.582;1.470;2023-03-13T17:00:37;7.63;;;3.38;;